createdAt,value
2018-11-07T00:00:51.818Z,28.23
2018-11-07T00:03:20.626Z,27.83
2018-11-07T00:05:49.126Z,27.00
2018-11-07T00:08:18.314Z,27.50
2018-11-07T00:10:46.745Z,28.63
2018-11-07T00:13:15.345Z,25.63
2018-11-07T00:15:44.526Z,24.17
2018-11-07T00:18:13.273Z,26.40
2018-11-07T00:20:41.727Z,21.43
2018-11-07T00:23:10.366Z,22.60
2018-11-07T00:25:39.305Z,21.93
2018-11-07T00:28:07.805Z,22.27
2018-11-07T00:30:36.634Z,22.60
2018-11-07T00:33:05.990Z,22.07
2018-11-07T00:35:34.438Z,21.77
2018-11-07T00:38:03.094Z,20.73
2018-11-07T00:40:31.622Z,21.40
2018-11-07T00:43:00.109Z,20.17
2018-11-07T00:45:29.362Z,19.30
2018-11-07T00:47:58.099Z,20.80
2018-11-07T00:50:26.548Z,21.63
2018-11-07T00:52:55.423Z,19.93
2018-11-07T00:55:24.154Z,19.83
2018-11-07T00:57:52.628Z,19.50
2018-11-07T01:00:21.605Z,21.50
2018-11-07T01:02:50.488Z,20.30
2018-11-07T01:05:18.940Z,21.33
2018-11-07T01:07:48.479Z,21.77
2018-11-07T01:10:17.029Z,21.33
2018-11-07T01:12:45.477Z,20.93
2018-11-07T01:15:14.818Z,21.97
2018-11-07T01:17:43.394Z,21.90
2018-11-07T01:20:13.625Z,21.83
2018-11-07T01:22:42.297Z,22.33
2018-11-07T01:25:11.166Z,20.07
2018-11-07T01:27:39.621Z,20.80
2018-11-07T01:30:10.364Z,21.30
2018-11-07T01:32:38.999Z,22.33
2018-11-07T01:35:07.697Z,21.67
2018-11-07T01:37:36.329Z,22.03
2018-11-07T01:40:10.598Z,22.23
2018-11-07T01:42:39.330Z,23.90
2018-11-07T01:45:08.912Z,23.40
2018-11-07T01:47:38.174Z,21.53
2018-11-07T01:50:08.286Z,19.57
2018-11-07T01:52:36.922Z,20.97
2018-11-07T01:55:05.877Z,21.80
2018-11-07T01:57:34.499Z,22.93
2018-11-07T02:00:02.966Z,21.60
2018-11-07T02:02:31.881Z,22.87
2018-11-07T02:05:00.710Z,20.37
2018-11-07T02:07:29.193Z,20.73
2018-11-07T02:09:58.602Z,20.33
2018-11-07T02:12:27.117Z,19.33
2018-11-07T02:14:55.617Z,19.33
2018-11-07T02:17:28.686Z,18.30
2018-11-07T02:19:57.286Z,19.63
2018-11-07T02:22:26.259Z,18.93
2018-11-07T02:24:55.489Z,18.53
2018-11-07T02:27:23.952Z,21.13
2018-11-07T02:29:52.385Z,21.03
2018-11-07T02:32:21.318Z,21.03
2018-11-07T02:34:49.757Z,22.13
2018-11-07T02:37:18.429Z,21.37
2018-11-07T02:39:47.078Z,20.80
2018-11-07T02:42:15.510Z,21.23
2018-11-07T02:44:43.985Z,21.20
2018-11-07T02:47:12.733Z,23.20
2018-11-07T02:49:41.178Z,21.83
2018-11-07T02:52:09.617Z,21.53
2018-11-07T02:54:38.237Z,21.57
2018-11-07T02:57:06.693Z,21.57
2018-11-07T02:59:35.130Z,20.93
2018-11-07T03:02:04.566Z,21.43
2018-11-07T03:04:33.022Z,19.80
2018-11-07T03:07:01.501Z,22.50
2018-11-07T03:09:30.145Z,21.57
2018-11-07T03:11:58.590Z,21.17
2018-11-07T03:14:27.039Z,20.30
2018-11-07T03:16:56.166Z,19.67
2018-11-07T03:19:24.783Z,23.03
2018-11-07T03:21:53.267Z,22.50
2018-11-07T03:24:22.745Z,21.93
2018-11-07T03:26:51.193Z,21.53
2018-11-07T03:29:19.639Z,21.73
2018-11-07T03:31:48.973Z,20.47
2018-11-07T03:34:17.469Z,22.23
2018-11-07T03:36:45.972Z,21.37
2018-11-07T03:39:14.718Z,23.03
2018-11-07T03:41:43.239Z,22.60
2018-11-07T03:44:11.998Z,21.10
2018-11-07T03:46:40.665Z,21.87
2018-11-07T03:49:09.138Z,21.73
2018-11-07T03:51:37.599Z,19.17
2018-11-07T03:54:06.616Z,20.53
2018-11-07T03:56:35.581Z,21.17
2018-11-07T03:59:04.054Z,22.60
2018-11-07T04:01:32.701Z,21.37
2018-11-07T04:04:01.154Z,21.23
2018-11-07T04:06:29.638Z,21.43
2018-11-07T04:08:58.509Z,21.73
2018-11-07T04:11:26.969Z,20.67
2018-11-07T04:13:55.443Z,21.23
2018-11-07T04:16:24.118Z,21.63
2018-11-07T04:18:52.594Z,22.07
2018-11-07T04:21:21.531Z,21.23
2018-11-07T04:23:55.553Z,21.70
2018-11-07T04:26:24.532Z,21.57
2018-11-07T04:28:52.980Z,21.90
2018-11-07T04:31:21.565Z,22.00
2018-11-07T04:33:50.292Z,21.83
2018-11-07T04:36:18.856Z,22.47
2018-11-07T04:38:47.602Z,23.47
2018-11-07T04:41:16.321Z,22.93
2018-11-07T04:43:45.132Z,21.47
2018-11-07T04:46:13.922Z,22.77
2018-11-07T04:48:43.019Z,22.80
2018-11-07T04:51:11.458Z,21.97
2018-11-07T04:53:40.391Z,23.07
2018-11-07T04:56:08.928Z,22.77
2018-11-07T04:58:37.423Z,24.37
2018-11-07T05:01:07.008Z,23.93
2018-11-07T05:03:36.017Z,24.57
2018-11-07T05:06:04.700Z,25.80
2018-11-07T05:08:33.632Z,24.20
2018-11-07T05:11:02.489Z,23.73
2018-11-07T05:13:31.173Z,25.90
2018-11-07T05:15:59.782Z,24.63
2018-11-07T05:18:28.677Z,25.73
2018-11-07T05:20:57.125Z,26.50
2018-11-07T05:23:26.151Z,26.83
2018-11-07T05:25:54.838Z,26.23
2018-11-07T05:28:23.279Z,28.13
2018-11-07T05:30:52.824Z,27.73
2018-11-07T05:33:21.585Z,28.50
2018-11-07T05:35:50.078Z,29.53
2018-11-07T05:38:18.627Z,28.60
2018-11-07T05:40:47.656Z,29.10
2018-11-07T05:43:16.113Z,29.57
2018-11-07T05:45:44.724Z,30.07
2018-11-07T05:48:13.649Z,29.83
2018-11-07T05:50:42.143Z,29.87
2018-11-07T05:53:10.705Z,30.70
2018-11-07T05:55:39.349Z,30.60
2018-11-07T05:58:07.805Z,30.03
2018-11-07T06:00:36.369Z,32.13
2018-11-07T06:03:05.118Z,29.73
2018-11-07T06:05:33.599Z,30.77
2018-11-07T06:08:02.526Z,31.40
2018-11-07T06:10:31.060Z,30.00
2018-11-07T06:12:59.497Z,30.63
2018-11-07T06:15:28.054Z,28.83
2018-11-07T06:17:56.596Z,27.40
2018-11-07T06:20:25.138Z,26.23
2018-11-07T06:22:53.752Z,25.57
2018-11-07T06:25:22.825Z,25.37
2018-11-07T06:27:51.444Z,24.57
2018-11-07T06:30:20.013Z,24.50
2018-11-07T06:32:48.574Z,24.77
2018-11-07T06:35:17.013Z,25.97
2018-11-07T06:37:45.792Z,25.00
2018-11-07T06:40:14.465Z,25.20
2018-11-07T06:42:42.919Z,24.63
2018-11-07T06:45:12.469Z,24.90
2018-11-07T06:47:41.152Z,25.90
2018-11-07T06:50:13.170Z,25.93
2018-11-07T06:52:41.698Z,23.83
2018-11-07T06:55:10.853Z,25.07
2018-11-07T06:57:40.191Z,25.87
2018-11-07T07:00:10.753Z,24.97
2018-11-07T07:02:39.386Z,24.83
2018-11-07T07:05:08.684Z,23.20
2018-11-07T07:07:38.778Z,24.13
2018-11-07T07:10:11.245Z,23.80
2018-11-07T07:12:39.810Z,26.13
2018-11-07T07:15:10.366Z,25.37
2018-11-07T07:17:39.467Z,24.87
2018-11-07T07:20:11.353Z,24.67
2018-11-07T07:22:40.812Z,24.83
2018-11-07T07:25:10.267Z,24.67
2018-11-07T07:27:39.145Z,24.43
2018-11-07T07:30:11.029Z,24.63
2018-11-07T07:32:40.016Z,25.13
2018-11-07T07:35:08.866Z,25.70
2018-11-07T07:37:37.558Z,24.57
2018-11-07T07:40:08.577Z,25.60
2018-11-07T07:42:37.407Z,24.27
2018-11-07T07:45:07.825Z,23.93
2018-11-07T07:47:36.745Z,23.83
2018-11-07T07:50:06.533Z,23.67
2018-11-07T07:52:35.058Z,23.50
2018-11-07T07:55:04.214Z,23.33
2018-11-07T07:57:32.659Z,23.33
2018-11-07T08:00:01.534Z,23.33
2018-11-07T08:02:30.292Z,24.70
2018-11-07T08:04:58.750Z,23.67
2018-11-07T08:07:27.753Z,24.17
2018-11-07T08:09:56.673Z,25.87
2018-11-07T08:12:25.142Z,25.40
2018-11-07T08:14:53.763Z,24.47
2018-11-07T08:17:22.346Z,24.33
2018-11-07T08:19:50.795Z,23.03
2018-11-07T08:22:19.493Z,23.40
2018-11-07T08:24:48.153Z,22.33
2018-11-07T08:27:16.609Z,21.80
2018-11-07T08:29:45.821Z,22.97
2018-11-07T08:32:14.602Z,23.00
2018-11-07T08:34:43.038Z,23.30
2018-11-07T08:37:11.645Z,24.27
2018-11-07T08:39:40.293Z,23.00
2018-11-07T08:42:08.755Z,23.53
2018-11-07T08:44:37.566Z,23.87
2018-11-07T08:47:06.670Z,24.13
2018-11-07T08:49:35.113Z,23.90
2018-11-07T08:52:03.857Z,24.17
2018-11-07T08:54:32.426Z,25.40
2018-11-07T08:57:00.978Z,23.53
2018-11-07T08:59:30.250Z,23.77
2018-11-07T09:01:59.057Z,24.07
2018-11-07T09:04:27.578Z,23.23
2018-11-07T09:06:56.409Z,24.43
2018-11-07T09:09:24.994Z,23.63
2018-11-07T09:11:53.472Z,23.67
2018-11-07T09:14:22.158Z,23.97
2018-11-07T09:16:50.745Z,23.97
2018-11-07T09:19:19.193Z,25.03
2018-11-07T09:21:47.720Z,25.33
2018-11-07T09:24:16.751Z,26.67
2018-11-07T09:26:45.201Z,24.63
2018-11-07T09:29:14.248Z,24.43
2018-11-07T09:31:43.689Z,26.07
2018-11-07T09:34:12.150Z,25.40
2018-11-07T09:36:40.681Z,25.80
2018-11-07T09:39:10.317Z,24.77
2018-11-07T09:41:38.797Z,27.07
2018-11-07T09:44:08.167Z,26.10
2018-11-07T09:46:36.905Z,26.03
2018-11-07T09:49:05.406Z,25.37
2018-11-07T09:51:34.590Z,24.20
2018-11-07T09:54:03.592Z,24.50
2018-11-07T09:56:32.167Z,25.67
2018-11-07T09:59:00.889Z,24.67
2018-11-07T10:01:29.743Z,26.47
2018-11-07T10:03:58.273Z,26.03
2018-11-07T10:06:27.589Z,25.63
2018-11-07T10:08:56.265Z,25.47
2018-11-07T10:11:24.953Z,26.20
2018-11-07T10:13:53.517Z,24.47
2018-11-07T10:16:22.391Z,25.17
2018-11-07T10:18:50.843Z,24.03
2018-11-07T10:21:19.634Z,24.43
2018-11-07T10:23:48.537Z,27.13
2018-11-07T10:26:17.076Z,26.27
2018-11-07T10:28:45.877Z,25.33
2018-11-07T10:31:14.482Z,23.63
2018-11-07T10:33:43.482Z,25.37
2018-11-07T10:36:12.034Z,23.80
2018-11-07T10:38:41.254Z,24.77
2018-11-07T10:41:09.585Z,24.03
2018-11-07T10:43:38.529Z,24.77
2018-11-07T10:46:07.586Z,26.70
2018-11-07T10:48:36.022Z,25.30
2018-11-07T10:51:04.841Z,25.20
2018-11-07T10:53:33.658Z,25.97
2018-11-07T10:56:02.214Z,25.80
2018-11-07T10:58:30.880Z,25.90
2018-11-07T11:01:04.690Z,25.83
2018-11-07T11:03:33.797Z,25.37
2018-11-07T11:06:02.308Z,25.57
2018-11-07T11:08:30.803Z,25.83
2018-11-07T11:11:00.451Z,24.83
2018-11-07T11:13:28.961Z,25.33
2018-11-07T11:18:32.936Z,24.20
2018-11-07T11:21:01.506Z,25.67
2018-11-07T11:23:30.345Z,24.47
2018-11-07T11:25:59.099Z,25.87
2018-11-07T11:28:27.593Z,24.80
2018-11-07T11:30:56.384Z,24.00
2018-11-07T11:33:25.215Z,24.77
2018-11-07T11:35:53.877Z,25.30
2018-11-07T11:38:22.845Z,24.30
2018-11-07T11:40:51.952Z,25.13
2018-11-07T11:43:20.634Z,24.87
2018-11-07T11:45:49.176Z,23.27
2018-11-07T11:48:17.972Z,24.73
2018-11-07T11:50:46.465Z,24.77
2018-11-07T11:53:15.180Z,23.83
2018-11-07T11:55:43.736Z,23.50
2018-11-07T11:58:12.238Z,24.20
2018-11-07T12:00:40.951Z,25.20
2018-11-07T12:03:09.521Z,26.77
2018-11-07T12:05:37.987Z,25.43
2018-11-07T12:08:06.702Z,26.33
2018-11-07T12:10:35.230Z,26.03
2018-11-07T12:13:03.716Z,25.83
2018-11-07T12:15:32.288Z,28.10
2018-11-07T12:18:01.162Z,27.43
2018-11-07T12:20:29.642Z,26.67
2018-11-07T12:22:58.202Z,27.33
2018-11-07T12:25:27.220Z,28.30
2018-11-07T12:27:55.703Z,29.17
2018-11-07T12:30:25.443Z,28.00
2018-11-07T12:32:54.889Z,27.77
2018-11-07T12:35:23.801Z,27.67
2018-11-07T12:37:52.738Z,27.70
2018-11-07T12:40:21.861Z,27.20
2018-11-07T12:42:50.465Z,27.73
2018-11-07T12:45:19.465Z,27.40
2018-11-07T12:47:48.071Z,27.53
2018-11-07T12:50:18.536Z,28.73
2018-11-07T12:52:47.395Z,28.07
2018-11-07T12:55:16.114Z,27.13
2018-11-07T12:57:44.772Z,28.50
2018-11-07T13:00:16.801Z,29.00
2018-11-07T13:02:45.621Z,26.67
2018-11-07T13:05:15.354Z,28.73
2018-11-07T13:07:45.024Z,29.30
2018-11-07T13:10:14.922Z,28.77
2018-11-07T13:12:44.389Z,29.53
2018-11-07T13:15:13.767Z,29.20
2018-11-07T13:17:42.587Z,29.67
2018-11-07T13:20:13.650Z,27.80
2018-11-07T13:22:42.794Z,27.93
2018-11-07T13:25:12.245Z,29.73
2018-11-07T13:27:40.766Z,28.77
2018-11-07T13:30:11.945Z,29.07
2018-11-07T13:32:40.911Z,28.60
2018-11-07T13:35:10.376Z,29.83
2018-11-07T13:37:39.931Z,27.57
2018-11-07T13:40:12.134Z,27.97
2018-11-07T13:42:40.982Z,26.67
2018-11-07T13:45:11.502Z,25.13
2018-11-07T13:47:40.977Z,25.17
2018-11-07T13:50:10.232Z,24.53
2018-11-07T13:52:38.701Z,26.53
2018-11-07T13:55:08.908Z,28.37
2018-11-07T13:57:38.321Z,25.30
2018-11-07T14:00:10.894Z,27.17
2018-11-07T14:02:39.841Z,25.80
2018-11-07T14:05:09.458Z,26.20
2018-11-07T14:07:38.094Z,27.37
2018-11-07T14:10:09.427Z,27.93
2018-11-07T14:12:38.048Z,28.13
2018-11-07T14:15:08.767Z,26.87
2018-11-07T14:17:37.742Z,27.53
2018-11-07T14:20:07.104Z,26.93
2018-11-07T14:22:35.670Z,27.97
2018-11-07T14:25:04.565Z,28.53
2018-11-07T14:27:33.543Z,27.33
2018-11-07T14:30:02.239Z,27.67
2018-11-07T14:32:31.214Z,27.33
2018-11-07T14:34:59.964Z,27.87
2018-11-07T14:37:28.534Z,28.03
2018-11-07T14:39:56.992Z,28.30
2018-11-07T14:42:25.862Z,28.13
2018-11-07T14:44:54.559Z,28.00
2018-11-07T14:47:23.146Z,28.47
2018-11-07T14:49:52.074Z,28.10
2018-11-07T14:52:20.820Z,29.23
2018-11-07T14:54:49.385Z,27.77
2018-11-07T14:57:17.994Z,29.20
2018-11-07T14:59:46.680Z,29.53
2018-11-07T15:02:15.132Z,30.10
2018-11-07T15:04:43.951Z,29.27
2018-11-07T15:07:13.434Z,31.27
2018-11-07T15:09:41.877Z,31.07
2018-11-07T15:12:10.551Z,31.47
2018-11-07T15:14:39.291Z,31.10
2018-11-07T15:17:07.834Z,32.60
2018-11-07T15:19:36.671Z,32.27
2018-11-07T15:22:05.946Z,30.63
2018-11-07T15:24:34.395Z,32.50
2018-11-07T15:27:03.443Z,32.13
2018-11-07T15:29:32.024Z,31.30
2018-11-07T15:32:00.481Z,32.03
2018-11-07T15:34:29.074Z,32.83
2018-11-07T15:36:57.761Z,29.90
2018-11-07T15:39:26.573Z,31.43
2018-11-07T15:41:55.264Z,30.17
2018-11-07T15:44:24.438Z,31.07
2018-11-07T15:46:53.060Z,30.20
2018-11-07T15:49:21.759Z,33.60
2018-11-07T15:51:54.285Z,34.17
2018-11-07T15:54:23.164Z,35.17
2018-11-07T15:56:51.999Z,30.80
2018-11-07T15:59:20.457Z,29.93
2018-11-07T16:01:49.183Z,29.60
2018-11-07T16:04:17.722Z,27.13
2018-11-07T16:06:46.214Z,29.90
2018-11-07T16:09:15.238Z,28.83
2018-11-07T16:11:43.859Z,30.40
2018-11-07T16:14:12.316Z,29.57
2018-11-07T16:16:41.289Z,29.17
2018-11-07T16:19:09.824Z,28.80
2018-11-07T16:21:38.325Z,27.23
2018-11-07T16:24:06.982Z,29.00
2018-11-07T16:26:35.497Z,29.77
2018-11-07T16:29:03.984Z,31.23
2018-11-07T16:31:32.801Z,31.00
2018-11-07T16:34:01.522Z,30.20
2018-11-07T16:36:30.422Z,29.63
2018-11-07T16:38:59.518Z,30.17
2018-11-07T16:41:28.319Z,30.30
2018-11-07T16:43:56.701Z,32.00
2018-11-07T16:46:25.498Z,31.33
2018-11-07T16:48:54.069Z,29.77
2018-11-07T16:51:22.636Z,30.30
2018-11-07T16:53:51.205Z,28.53
2018-11-07T16:56:19.763Z,28.00
2018-11-07T16:58:48.388Z,29.40
2018-11-07T17:01:17.326Z,28.40
2018-11-07T17:03:45.933Z,28.20
2018-11-07T17:06:14.464Z,28.67
2018-11-07T17:08:43.061Z,29.70
2018-11-07T17:11:11.634Z,29.60
2018-11-07T17:13:40.120Z,30.03
2018-11-07T17:16:08.714Z,31.03
2018-11-07T17:18:37.319Z,30.13
2018-11-07T17:21:05.839Z,31.23
2018-11-07T17:23:34.630Z,30.90
2018-11-07T17:26:03.313Z,31.13
2018-11-07T17:28:31.753Z,31.00
2018-11-07T17:31:00.429Z,28.70
2018-11-07T17:33:29.452Z,30.73
2018-11-07T17:35:58.053Z,32.00
2018-11-07T17:38:26.811Z,30.07
2018-11-07T17:40:55.929Z,30.47
2018-11-07T17:43:31.417Z,30.23
2018-11-07T17:45:59.976Z,30.67
2018-11-07T17:48:28.623Z,31.40
2018-11-07T17:50:57.185Z,27.40
2018-11-07T17:53:25.936Z,28.70
2018-11-07T17:55:54.603Z,27.50
2018-11-07T17:58:23.273Z,27.63
2018-11-07T18:00:51.893Z,28.47
2018-11-07T18:03:20.378Z,30.40
2018-11-07T18:05:49.288Z,30.23
2018-11-07T18:08:18.024Z,28.50
2018-11-07T18:10:46.522Z,29.57
2018-11-07T18:13:15.711Z,29.83
2018-11-07T18:15:44.708Z,28.40
2018-11-07T18:18:13.206Z,29.67
2018-11-07T18:20:41.853Z,28.40
2018-11-07T18:23:10.762Z,27.73
2018-11-07T18:25:39.332Z,29.07
2018-11-07T18:28:08.126Z,28.13
2018-11-07T18:30:36.685Z,28.30
2018-11-07T18:33:05.900Z,29.73
2018-11-07T18:35:34.792Z,30.23
2018-11-07T18:38:03.449Z,28.23
2018-11-07T18:40:32.010Z,28.93
2018-11-07T18:43:00.791Z,27.80
2018-11-07T18:45:29.356Z,27.47
2018-11-07T18:47:57.919Z,24.77
2018-11-07T18:50:26.757Z,26.00
2018-11-07T18:52:55.444Z,23.80
2018-11-07T18:55:24.072Z,24.47
2018-11-07T18:57:53.291Z,24.90
2018-11-07T19:00:21.945Z,25.93
2018-11-07T19:02:51.073Z,24.97
2018-11-07T19:05:19.871Z,26.77
2018-11-07T19:07:48.652Z,27.40
2018-11-07T19:10:18.550Z,28.50
2018-11-07T19:12:48.122Z,28.37
2018-11-07T19:15:17.196Z,29.43
2018-11-07T19:17:46.625Z,27.07
2018-11-07T19:20:16.231Z,25.57
2018-11-07T19:22:44.899Z,27.10
2018-11-07T19:25:14.762Z,26.10
2018-11-07T19:27:43.643Z,26.83
2018-11-07T19:30:19.369Z,25.27
2018-11-07T19:32:49.265Z,34.20
2018-11-07T19:35:18.491Z,28.00
2018-11-07T19:37:47.757Z,24.40
2018-11-07T19:40:17.900Z,24.27
2018-11-07T19:42:47.573Z,23.63
2018-11-07T19:45:17.419Z,23.03
2018-11-07T19:47:46.117Z,25.57
2018-11-07T19:50:15.685Z,24.33
2018-11-07T19:52:45.242Z,24.33
2018-11-07T19:55:17.350Z,25.70
2018-11-07T19:57:48.041Z,24.17
2018-11-07T20:00:17.544Z,24.83
2018-11-07T20:02:46.989Z,24.63
2018-11-07T20:05:15.767Z,24.77
2018-11-07T20:07:44.459Z,24.37
2018-11-07T20:10:16.167Z,22.53
2018-11-07T20:12:45.026Z,22.97
2018-11-07T20:15:14.780Z,21.47
2018-11-07T20:17:44.498Z,22.30
2018-11-07T20:20:13.502Z,22.83
2018-11-07T20:22:42.040Z,24.47
2018-11-07T20:25:11.765Z,24.27
2018-11-07T20:27:40.502Z,23.13
2018-11-07T20:30:10.882Z,23.93
2018-11-07T20:32:39.832Z,22.97
2018-11-07T20:35:10.489Z,24.13
2018-11-07T20:37:39.078Z,24.37
2018-11-07T20:40:11.120Z,25.20
2018-11-07T20:42:39.956Z,24.40
2018-11-07T20:45:09.422Z,25.60
2018-11-07T20:47:44.710Z,25.47
2018-11-07T20:50:15.714Z,27.03
2018-11-07T20:52:45.285Z,26.80
2018-11-07T20:55:14.434Z,26.93
2018-11-07T20:57:42.995Z,26.80
2018-11-07T21:00:15.167Z,25.13
2018-11-07T21:02:44.259Z,25.50
2018-11-07T21:05:13.039Z,24.00
2018-11-07T21:07:42.179Z,23.73
2018-11-07T21:10:13.469Z,24.13
2018-11-07T21:12:42.622Z,24.10
2018-11-07T21:15:12.397Z,25.40
2018-11-07T21:17:41.810Z,25.27
2018-11-07T21:20:10.401Z,25.10
2018-11-07T21:22:39.669Z,25.63
2018-11-07T21:25:08.613Z,25.77
2018-11-07T21:27:37.322Z,26.47
2018-11-07T21:30:08.766Z,23.77
2018-11-07T21:32:37.826Z,26.23
2018-11-07T21:35:06.750Z,28.17
2018-11-07T21:37:35.477Z,27.80
2018-11-07T21:40:04.578Z,27.53
2018-11-07T21:42:33.130Z,28.03
2018-11-07T21:45:01.824Z,26.07
2018-11-07T21:47:30.854Z,28.47
2018-11-07T21:49:59.342Z,28.37
2018-11-07T21:52:28.469Z,29.77
2018-11-07T21:54:57.676Z,30.57
2018-11-07T21:57:26.133Z,32.00
2018-11-07T21:59:54.693Z,29.60
2018-11-07T22:02:23.668Z,30.83
2018-11-07T22:04:52.112Z,32.27
2018-11-07T22:07:20.891Z,32.30
2018-11-07T22:09:49.640Z,31.13
2018-11-07T22:12:18.148Z,30.10
2018-11-07T22:14:47.260Z,31.47
2018-11-07T22:17:16.294Z,33.57
2018-11-07T22:19:44.797Z,33.03
2018-11-07T22:22:13.673Z,33.57
2018-11-07T22:24:42.538Z,33.27
2018-11-07T22:27:11.070Z,33.30
2018-11-07T22:29:39.713Z,29.63
2018-11-07T22:32:08.477Z,31.30
2018-11-07T22:34:37.062Z,32.50
2018-11-07T22:37:05.913Z,33.57
2018-11-07T22:39:34.554Z,32.97
2018-11-07T22:42:03.278Z,30.43
2018-11-07T22:44:31.928Z,30.33
2018-11-07T22:47:01.567Z,31.67
2018-11-07T22:49:30.018Z,29.93
2018-11-07T22:51:58.778Z,31.23
2018-11-07T22:54:27.399Z,30.53
2018-11-07T22:56:56.401Z,29.50
2018-11-07T22:59:24.970Z,31.70
2018-11-07T23:01:53.625Z,30.30
2018-11-07T23:04:22.057Z,28.63
2018-11-07T23:06:50.877Z,28.37
2018-11-07T23:09:19.488Z,31.33
2018-11-07T23:11:48.034Z,30.63
2018-11-07T23:14:17.237Z,32.30
2018-11-07T23:16:46.019Z,33.77
2018-11-07T23:19:14.503Z,30.83
2018-11-07T23:21:43.304Z,32.80
2018-11-07T23:24:12.406Z,32.30
2018-11-07T23:26:40.877Z,30.43
2018-11-07T23:29:09.663Z,34.13
2018-11-07T23:31:38.699Z,32.77
2018-11-07T23:34:07.174Z,32.30
2018-11-07T23:36:36.022Z,30.17
2018-11-07T23:39:07.016Z,32.00
2018-11-07T23:41:35.463Z,29.60
2018-11-07T23:44:04.265Z,26.60
2018-11-07T23:46:32.934Z,28.67
2018-11-07T23:49:01.417Z,29.23
2018-11-07T23:51:29.995Z,33.17
2018-11-07T23:53:58.805Z,32.10
2018-11-07T23:56:27.254Z,32.67
2018-11-07T23:58:56.646Z,29.40
